Waldo, Wisconsin
Current Conditions -  °F | °C
As of 3:53 AM on Friday 31 Oct 2014 (Local Time) from KSBM Reporting Station
Overcast Overcast  
Wind Chill: -1°   Ceiling: 3000
Heat Index:   Visibility: 10mi
Dew Point: -1°   Wind: 12mph
Humidity: 79%   Direction: 320°NW
Pressure: 30.04"   Gusts: 24mph
Location:  43.67°N, 87.95°W
Report Text: KSBM 310853Z AUTO 32010G21KT 10SM SCT018 SCT024 OVC030 03/M01 A3004 RMK AO2 RAE20 SLP177 P0000 60000 T00281006 53011
Loading
Personal Weather Stations






























Interactive Weather Map
Tropical Storm Tracking
New forecast layout! Learn more

10-Day Weather Forecast

Advertisements
Track Severe Weather on mobile